Time;durP1;ratioP1;P1;durP2;ratioP2;P2;SDS_P1;SDS_P2;PMS_P1;PMS_P2;Temp;Humidity;BMP_temperature;BMP_pressure;BME280_temperature;BME280_humidity;BME280_pressure;Samples;Min_cycle;Max_cycle;Signal;HPM_P1;HPM_P2
2023/04/10 00:02:24;;;;;;;;;;;16.50;81.80;;;;;;5094240;28;19912;-67
2023/04/10 00:04:51;;;;;;;;;;;16.60;82.50;;;;;;5093907;28;19912;-69
2023/04/10 00:07:17;;;;;;;;;;;16.60;81.10;;;;;;5091924;28;20234;-68
2023/04/10 00:09:44;;;;;;;;;;;16.70;81.70;;;;;;5092691;28;19995;-67
2023/04/10 00:12:11;;;;;;;;;;;16.80;80.70;;;;;;5095776;28;19950;-66
2023/04/10 00:14:37;;;;;;;;;;;16.80;79.80;;;;;;5096395;28;19915;-66
2023/04/10 00:17:04;;;;;;;;;;;16.80;79.90;;;;;;5095474;28;20669;-66
2023/04/10 00:19:31;;;;;;;;;;;16.80;79.60;;;;;;5094906;28;20423;-65
2023/04/10 00:21:57;;;;;;;;;;;16.90;79.80;;;;;;5096495;28;19916;-64
2023/04/10 00:24:24;;;;;;;;;;;16.90;80.50;;;;;;5095867;28;20283;-68
2023/04/10 00:26:51;;;;;;;;;;;17.00;79.70;;;;;;5096990;28;19912;-67
2023/04/10 00:29:17;;;;;;;;;;;17.20;79.20;;;;;;5092009;28;19938;-66
2023/04/10 00:31:44;;;;;;;;;;;17.30;78.70;;;;;;5097050;28;19912;-64
2023/04/10 00:34:12;;;;;;;;;;;17.30;78.30;;;;;;5099461;28;20372;-67
2023/04/10 00:36:39;;;;;;;;;;;17.40;78.40;;;;;;5078421;28;19920;-67
2023/04/10 00:39:06;;;;;;;;;;;17.50;78.70;;;;;;5099296;28;19907;-64
2023/04/10 00:41:33;;;;;;;;;;;17.60;78.20;;;;;;5098980;28;19973;-69
2023/04/10 00:44:00;;;;;;;;;;;17.60;77.20;;;;;;5101124;28;19911;-66
2023/04/10 00:46:27;;;;;;;;;;;17.70;77.70;;;;;;5098387;28;20642;-67
2023/04/10 00:48:55;;;;;;;;;;;17.80;77.00;;;;;;5101023;28;19951;-67
2023/04/10 00:51:22;;;;;;;;;;;17.90;77.60;;;;;;5099711;28;19911;-67
2023/04/10 00:53:53;;;;;;;;;;;17.90;77.30;;;;;;5099927;28;19964;-68
2023/04/10 00:56:20;;;;;;;;;;;18.10;78.00;;;;;;5100375;28;19973;-67
2023/04/10 00:58:47;;;;;;;;;;;18.20;76.70;;;;;;5099897;28;19919;-64
2023/04/10 01:01:13;;;;;;;;;;;18.30;75.60;;;;;;5098612;28;20087;-67
2023/04/10 01:03:40;;;;;;;;;;;18.40;76.20;;;;;;5098684;28;19918;-64
2023/04/10 01:06:13;;;;;;;;;;;18.40;74.80;;;;;;5100606;28;19908;-69
2023/04/10 01:08:39;;;;;;;;;;;18.40;75.70;;;;;;5099999;28;19915;-65
2023/04/10 01:11:15;;;;;;;;;;;18.40;74.20;;;;;;5101108;28;19915;-65
2023/04/10 01:13:50;;;;;;;;;;;18.40;76.00;;;;;;5098950;28;20036;-66
2023/04/10 01:16:35;;;;;;;;;;;18.50;74.80;;;;;;5100048;28;19978;-64
2023/04/10 01:19:19;;;;;;;;;;;18.80;74.50;;;;;;5079755;28;19908;-65
2023/04/10 01:21:47;;;;;;;;;;;18.90;74.30;;;;;;5077016;28;19908;-71
2023/04/10 01:24:29;;;;;;;;;;;19.00;72.80;;;;;;5079957;28;20544;-66
2023/04/10 01:27:01;;;;;;;;;;;19.20;72.90;;;;;;5080685;28;20019;-67
2023/04/10 01:29:29;;;;;;;;;;;19.30;72.60;;;;;;5086350;28;19919;-69
2023/04/10 01:31:56;;;;;;;;;;;19.40;71.70;;;;;;5100379;28;20368;-67
2023/04/10 01:34:29;;;;;;;;;;;19.70;72.30;;;;;;5100513;28;20352;-65
2023/04/10 01:36:59;;;;;;;;;;;19.80;70.80;;;;;;5096394;28;19924;-66
2023/04/10 01:39:27;;;;;;;;;;;19.90;71.90;;;;;;5079745;28;20444;-66
2023/04/10 01:41:58;;;;;;;;;;;20.00;70.20;;;;;;5079375;28;19963;-67
2023/04/10 01:44:29;;;;;;;;;;;20.30;70.20;;;;;;5088092;28;19916;-64
2023/04/10 01:46:56;;;;;;;;;;;20.60;70.70;;;;;;5098715;28;19922;-65
2023/04/10 01:49:24;;;;;;;;;;;20.80;69.90;;;;;;5098241;28;19912;-64
2023/04/10 01:51:53;;;;;;;;;;;20.70;68.50;;;;;;5097927;28;19907;-64
2023/04/10 01:54:20;;;;;;;;;;;20.30;68.60;;;;;;5087672;28;20096;-64
2023/04/10 01:56:46;;;;;;;;;;;20.30;69.30;;;;;;5092589;28;20166;-65
2023/04/10 01:59:13;;;;;;;;;;;20.60;68.80;;;;;;5082291;28;19920;-67
2023/04/10 02:01:40;;;;;;;;;;;20.90;69.90;;;;;;5077180;28;20503;-65
2023/04/10 02:04:06;;;;;;;;;;;21.00;66.70;;;;;;5078944;28;20397;-68
2023/04/10 02:06:41;;;;;;;;;;;20.80;66.80;;;;;;5078373;28;19908;-65
2023/04/10 02:09:15;;;;;;;;;;;20.80;67.70;;;;;;5079447;28;20338;-69
2023/04/10 02:11:54;;;;;;;;;;;21.00;67.50;;;;;;5083638;28;19916;-63
2023/04/10 02:14:22;;;;;;;;;;;21.10;67.40;;;;;;5097434;28;20243;-65
2023/04/10 02:16:50;;;;;;;;;;;21.00;66.80;;;;;;5094619;28;19915;-65
2023/04/10 02:19:17;;;;;;;;;;;21.10;67.40;;;;;;5095826;28;19998;-65
2023/04/10 02:21:44;;;;;;;;;;;21.30;66.70;;;;;;5093921;28;19912;-62
2023/04/10 02:24:11;;;;;;;;;;;21.60;65.90;;;;;;5098205;28;20268;-63
2023/04/10 02:26:47;;;;;;;;;;;21.70;65.70;;;;;;5093438;28;19977;-66
2023/04/10 02:29:14;;;;;;;;;;;21.80;65.70;;;;;;5075720;28;19915;-67
2023/04/10 02:31:41;;;;;;;;;;;22.00;66.30;;;;;;5092931;28;19918;-65
2023/04/10 02:34:07;;;;;;;;;;;22.30;65.60;;;;;;5094595;28;20640;-62
2023/04/10 02:36:40;;;;;;;;;;;22.70;65.10;;;;;;5096755;28;20352;-66
2023/04/10 02:39:07;;;;;;;;;;;23.10;63.00;;;;;;5093403;28;19916;-63
2023/04/10 02:41:34;;;;;;;;;;;23.30;62.00;;;;;;5095913;28;19926;-66
2023/04/10 02:44:00;;;;;;;;;;;23.10;62.80;;;;;;5095354;28;20711;-64
2023/04/10 02:46:27;;;;;;;;;;;23.40;62.10;;;;;;5079028;28;19912;-65
2023/04/10 02:48:54;;;;;;;;;;;24.40;61.50;;;;;;5093991;28;19911;-65
2023/04/10 02:51:21;;;;;;;;;;;25.80;58.80;;;;;;5096196;28;19912;-65
2023/04/10 02:53:48;;;;;;;;;;;26.00;57.30;;;;;;5091222;28;20626;-65
2023/04/10 02:56:14;;;;;;;;;;;25.50;57.10;;;;;;5094519;28;19915;-67
2023/04/10 02:58:44;;;;;;;;;;;24.60;57.70;;;;;;5094739;28;19912;-67
2023/04/10 03:01:12;;;;;;;;;;;23.80;59.40;;;;;;5097682;28;19919;-66
2023/04/10 03:03:38;;;;;;;;;;;23.90;60.60;;;;;;5098220;28;19915;-67
2023/04/10 03:06:05;;;;;;;;;;;25.50;57.10;;;;;;5096982;28;20321;-67
2023/04/10 03:08:32;;;;;;;;;;;27.30;54.50;;;;;;5094122;28;20084;-67
2023/04/10 03:10:58;;;;;;;;;;;27.50;53.90;;;;;;5095287;28;19908;-67
2023/04/10 03:13:25;;;;;;;;;;;28.40;54.40;;;;;;5094028;28;19912;-69
2023/04/10 03:15:52;;;;;;;;;;;29.80;52.60;;;;;;5094469;28;20004;-68
2023/04/10 03:18:18;;;;;;;;;;;29.80;52.90;;;;;;5096439;27;19911;-68
2023/04/10 03:20:46;;;;;;;;;;;29.80;51.30;;;;;;5096943;28;19940;-69
2023/04/10 03:23:12;;;;;;;;;;;30.10;50.70;;;;;;5094695;27;20361;-68
2023/04/10 03:25:40;;;;;;;;;;;30.00;51.20;;;;;;5118159;27;19908;-66
2023/04/10 03:28:06;;;;;;;;;;;31.00;51.60;;;;;;5112173;27;19930;-66
2023/04/10 03:30:35;;;;;;;;;;;32.00;49.50;;;;;;5097247;28;20390;-65
2023/04/10 03:33:02;;;;;;;;;;;32.70;49.00;;;;;;5091967;28;19912;-67
2023/04/10 03:35:29;;;;;;;;;;;33.20;47.90;;;;;;5096958;28;19922;-67
2023/04/10 03:37:55;;;;;;;;;;;32.80;47.80;;;;;;5093020;28;19952;-67
2023/04/10 03:40:22;;;;;;;;;;;31.20;49.50;;;;;;5096349;28;19927;-67
2023/04/10 03:42:49;;;;;;;;;;;30.50;49.70;;;;;;5087243;28;20292;-68
2023/04/10 03:45:15;;;;;;;;;;;30.90;51.20;;;;;;5095774;28;19918;-67
2023/04/10 03:47:42;;;;;;;;;;;31.90;49.50;;;;;;5097718;28;19912;-67
2023/04/10 03:50:09;;;;;;;;;;;33.10;51.40;;;;;;5092467;28;20255;-64
2023/04/10 03:52:36;;;;;;;;;;;34.30;50.40;;;;;;5094394;28;19912;-67
2023/04/10 03:55:02;;;;;;;;;;;34.60;48.40;;;;;;5095746;28;20428;-67
2023/04/10 03:57:29;;;;;;;;;;;33.40;49.80;;;;;;5097685;28;19950;-65
2023/04/10 03:59:55;;;;;;;;;;;31.50;50.40;;;;;;5092257;28;20738;-69
2023/04/10 04:02:22;;;;;;;;;;;29.50;53.40;;;;;;5091796;28;20012;-67
2023/04/10 04:04:49;;;;;;;;;;;27.80;54.70;;;;;;5090494;28;19999;-65
2023/04/10 04:07:15;;;;;;;;;;;26.30;56.60;;;;;;5099056;28;20006;-67
2023/04/10 04:09:42;;;;;;;;;;;25.20;58.40;;;;;;5096695;27;19961;-65
2023/04/10 04:12:09;;;;;;;;;;;24.70;59.00;;;;;;5098562;28;20426;-69
2023/04/10 04:14:35;;;;;;;;;;;25.00;60.60;;;;;;5110965;27;19911;-68
2023/04/10 04:17:02;;;;;;;;;;;25.30;60.10;;;;;;5119365;27;19923;-63
2023/04/10 04:19:29;;;;;;;;;;;27.20;59.80;;;;;;5099020;27;19915;-65
2023/04/10 04:21:56;;;;;;;;;;;29.50;54.80;;;;;;5098603;28;20065;-64
2023/04/10 04:24:23;;;;;;;;;;;31.20;53.10;;;;;;5090387;28;19994;-64
2023/04/10 04:26:49;;;;;;;;;;;32.80;52.40;;;;;;5101807;28;19914;-68
2023/04/10 04:29:16;;;;;;;;;;;33.90;51.70;;;;;;5093855;28;19912;-66
2023/04/10 04:31:43;;;;;;;;;;;34.50;50.60;;;;;;5100209;28;20249;-67
2023/04/10 04:34:09;;;;;;;;;;;35.00;49.60;;;;;;5072656;27;19919;-68
2023/04/10 04:36:36;;;;;;;;;;;35.20;49.00;;;;;;5106562;27;19916;-67
2023/04/10 04:39:02;;;;;;;;;;;35.30;48.90;;;;;;5092819;28;20542;-67
2023/04/10 04:41:31;;;;;;;;;;;35.40;49.00;;;;;;5100248;28;19919;-68
2023/04/10 04:43:58;;;;;;;;;;;36.10;48.80;;;;;;5085910;28;19912;-66
2023/04/10 04:46:24;;;;;;;;;;;36.30;48.00;;;;;;5100165;28;19972;-66
2023/04/10 04:48:51;;;;;;;;;;;36.30;48.20;;;;;;5099274;28;19918;-65
2023/04/10 04:51:17;;;;;;;;;;;36.20;49.30;;;;;;5098153;28;19911;-64
2023/04/10 04:53:44;;;;;;;;;;;36.10;47.30;;;;;;5099897;28;19908;-66
2023/04/10 04:56:11;;;;;;;;;;;34.90;48.70;;;;;;5098654;28;19970;-66
2023/04/10 04:58:38;;;;;;;;;;;34.40;49.30;;;;;;5100612;28;19908;-65
2023/04/10 05:01:04;;;;;;;;;;;34.40;48.80;;;;;;5097136;28;19939;-66
2023/04/10 05:03:31;;;;;;;;;;;33.30;49.30;;;;;;5100294;28;19916;-66
2023/04/10 05:05:58;;;;;;;;;;;31.80;50.70;;;;;;5100030;28;19915;-68
2023/04/10 05:08:25;;;;;;;;;;;30.20;52.40;;;;;;5093814;28;19912;-65
2023/04/10 05:10:51;;;;;;;;;;;28.80;54.60;;;;;;5100007;28;20257;-67
2023/04/10 05:13:18;;;;;;;;;;;27.60;55.60;;;;;;5097189;28;20152;-70
2023/04/10 05:15:45;;;;;;;;;;;26.50;56.60;;;;;;5099328;28;20065;-68
2023/04/10 05:18:12;;;;;;;;;;;25.70;57.70;;;;;;5097094;28;19919;-67
2023/04/10 05:20:39;;;;;;;;;;;25.20;60.20;;;;;;5099742;28;20271;-67
2023/04/10 05:23:06;;;;;;;;;;;24.90;61.30;;;;;;5098343;28;19933;-67
2023/04/10 05:25:33;;;;;;;;;;;25.90;59.60;;;;;;5100260;28;19939;-64
2023/04/10 05:28:00;;;;;;;;;;;26.20;58.90;;;;;;5099773;28;19951;-69
2023/04/10 05:30:26;;;;;;;;;;;25.70;59.00;;;;;;5098473;28;20377;-65
2023/04/10 05:32:53;;;;;;;;;;;24.90;60.40;;;;;;5099460;28;19916;-68
2023/04/10 05:35:19;;;;;;;;;;;24.30;60.90;;;;;;5097924;28;19961;-68
2023/04/10 05:37:46;;;;;;;;;;;23.80;62.60;;;;;;5099913;28;19912;-66
2023/04/10 05:40:13;;;;;;;;;;;23.30;62.70;;;;;;5097572;28;19943;-65
2023/04/10 05:42:39;;;;;;;;;;;22.70;63.60;;;;;;5099919;28;19947;-68
2023/04/10 05:45:06;;;;;;;;;;;22.30;64.60;;;;;;5098713;28;20010;-66
2023/04/10 05:47:33;;;;;;;;;;;22.00;65.80;;;;;;5098183;28;19980;-65
2023/04/10 05:49:59;;;;;;;;;;;21.70;66.80;;;;;;5099203;28;19908;-63
2023/04/10 05:52:26;;;;;;;;;;;21.50;67.70;;;;;;5097203;28;19911;-65
2023/04/10 05:54:53;;;;;;;;;;;21.50;67.40;;;;;;5094048;28;19916;-69
2023/04/10 05:57:19;;;;;;;;;;;21.50;68.00;;;;;;5077056;28;19912;-69
2023/04/10 05:59:46;;;;;;;;;;;21.50;67.20;;;;;;5078306;28;19908;-70
2023/04/10 06:02:12;;;;;;;;;;;21.50;67.50;;;;;;5077389;28;19919;-64
2023/04/10 06:04:39;;;;;;;;;;;21.40;68.50;;;;;;5093137;28;19907;-67
2023/04/10 06:07:06;;;;;;;;;;;21.00;68.80;;;;;;5099661;28;19975;-69
2023/04/10 06:09:33;;;;;;;;;;;21.00;69.70;;;;;;5077842;28;20572;-70
2023/04/10 06:12:00;;;;;;;;;;;21.00;69.30;;;;;;5078333;28;19960;-71
2023/04/10 06:14:26;;;;;;;;;;;21.10;68.90;;;;;;5088372;28;19908;-70
2023/04/10 06:16:53;;;;;;;;;;;21.20;69.40;;;;;;5087388;28;19943;-65
2023/04/10 06:19:20;;;;;;;;;;;21.30;69.70;;;;;;5093645;28;19916;-67
2023/04/10 06:21:46;;;;;;;;;;;21.20;69.10;;;;;;5095463;28;19912;-70
2023/04/10 06:24:14;;;;;;;;;;;21.40;70.40;;;;;;5089360;28;19919;-71
2023/04/10 06:26:41;;;;;;;;;;;21.90;69.60;;;;;;5077271;28;19909;-71
2023/04/10 06:29:07;;;;;;;;;;;22.30;67.60;;;;;;5092921;28;20006;-71
2023/04/10 06:31:34;;;;;;;;;;;22.70;67.80;;;;;;5097168;28;20326;-68
2023/04/10 06:34:01;;;;;;;;;;;23.60;67.80;;;;;;5090338;28;19912;-71
2023/04/10 06:36:27;;;;;;;;;;;24.10;66.10;;;;;;5079104;28;20550;-70
2023/04/10 06:38:54;;;;;;;;;;;24.80;65.30;;;;;;5090493;27;19915;-71
2023/04/10 06:41:21;;;;;;;;;;;26.10;61.90;;;;;;5091258;28;19924;-70
2023/04/10 06:43:47;;;;;;;;;;;27.40;60.60;;;;;;5086196;28;19926;-71
2023/04/10 06:46:14;;;;;;;;;;;28.70;59.60;;;;;;5099973;28;19923;-71
2023/04/10 06:48:41;;;;;;;;;;;29.50;58.30;;;;;;5092881;28;20691;-70
2023/04/10 06:51:08;;;;;;;;;;;29.70;56.00;;;;;;5098564;28;19907;-71
2023/04/10 06:53:34;;;;;;;;;;;28.60;57.10;;;;;;5093558;28;19920;-67
2023/04/10 06:56:01;;;;;;;;;;;27.80;58.50;;;;;;5077395;28;19916;-62
2023/04/10 06:58:28;;;;;;;;;;;26.80;59.60;;;;;;5079822;28;19908;-64
2023/04/10 07:00:54;;;;;;;;;;;25.40;61.80;;;;;;5094437;28;20645;-67
2023/04/10 07:03:21;;;;;;;;;;;24.50;63.30;;;;;;5097875;28;19919;-69
2023/04/10 07:05:48;;;;;;;;;;;23.60;65.00;;;;;;5096441;28;19919;-63
2023/04/10 07:08:15;;;;;;;;;;;22.70;66.50;;;;;;5098133;28;20245;-70
2023/04/10 07:10:42;;;;;;;;;;;22.00;67.40;;;;;;5096324;28;19908;-71
2023/04/10 07:13:08;;;;;;;;;;;21.50;69.10;;;;;;5097468;28;20560;-63
2023/04/10 07:15:35;;;;;;;;;;;21.20;69.90;;;;;;5094895;28;19916;-64
2023/04/10 07:18:01;;;;;;;;;;;20.90;70.10;;;;;;5076001;28;19908;-70
2023/04/10 07:20:28;;;;;;;;;;;20.70;70.20;;;;;;5078213;28;19961;-61
2023/04/10 07:22:55;;;;;;;;;;;20.50;70.90;;;;;;5076819;28;19934;-63
2023/04/10 07:25:22;;;;;;;;;;;20.30;71.90;;;;;;5077406;28;19926;-63
2023/04/10 07:27:48;;;;;;;;;;;20.20;72.50;;;;;;5081033;28;19977;-65
2023/04/10 07:30:15;;;;;;;;;;;20.00;73.50;;;;;;5095672;28;19915;-71
2023/04/10 07:32:42;;;;;;;;;;;19.90;73.70;;;;;;5098700;28;19908;-63
2023/04/10 07:35:09;;;;;;;;;;;19.70;73.70;;;;;;5093786;28;19920;-62
2023/04/10 07:37:35;;;;;;;;;;;19.60;75.40;;;;;;5077908;28;19919;-62
2023/04/10 07:40:02;;;;;;;;;;;19.40;76.10;;;;;;5075339;28;19927;-68
2023/04/10 07:42:29;;;;;;;;;;;19.20;75.70;;;;;;5065015;28;19920;-67
2023/04/10 07:44:56;;;;;;;;;;;19.10;77.00;;;;;;5093210;28;19998;-69
2023/04/10 07:47:23;;;;;;;;;;;19.00;77.80;;;;;;5095295;28;19915;-68
2023/04/10 07:49:50;;;;;;;;;;;18.90;77.10;;;;;;5096259;28;20002;-69
2023/04/10 07:52:16;;;;;;;;;;;18.70;77.40;;;;;;5094423;28;20039;-61
2023/04/10 07:54:43;;;;;;;;;;;18.60;78.30;;;;;;5097668;28;19915;-68
2023/04/10 07:57:09;;;;;;;;;;;18.60;79.90;;;;;;5094023;28;19915;-60
2023/04/10 07:59:36;;;;;;;;;;;18.50;79.60;;;;;;5097123;28;19908;-61
2023/04/10 08:02:03;;;;;;;;;;;18.50;80.20;;;;;;5091083;28;20304;-61
2023/04/10 08:04:29;;;;;;;;;;;18.40;80.40;;;;;;5077700;28;20293;-61
2023/04/10 08:06:56;;;;;;;;;;;18.30;80.30;;;;;;5077556;28;20050;-64
2023/04/10 08:09:23;;;;;;;;;;;18.20;79.70;;;;;;5094138;28;20054;-61
2023/04/10 08:11:49;;;;;;;;;;;18.10;81.80;;;;;;5097151;28;19920;-61
2023/04/10 08:14:16;;;;;;;;;;;18.10;82.00;;;;;;5095189;28;19908;-68
2023/04/10 08:16:43;;;;;;;;;;;18.00;81.60;;;;;;5098110;28;19965;-68
2023/04/10 08:19:09;;;;;;;;;;;17.90;82.40;;;;;;5095058;28;19908;-69
2023/04/10 08:21:36;;;;;;;;;;;17.80;83.70;;;;;;5096628;28;19911;-67
2023/04/10 08:24:03;;;;;;;;;;;17.70;84.50;;;;;;5097664;28;19915;-62
2023/04/10 08:26:30;;;;;;;;;;;17.60;85.60;;;;;;5097401;28;20426;-67
2023/04/10 08:28:58;;;;;;;;;;;17.60;86.50;;;;;;5097927;28;19918;-63
2023/04/10 08:31:26;;;;;;;;;;;17.50;87.10;;;;;;5095695;28;19916;-67
2023/04/10 08:33:53;;;;;;;;;;;17.40;87.90;;;;;;5074182;28;20409;-69
2023/04/10 08:36:19;;;;;;;;;;;17.30;88.70;;;;;;5090618;28;19984;-63
2023/04/10 08:38:47;;;;;;;;;;;17.20;89.60;;;;;;5083203;28;19999;-62
2023/04/10 08:41:14;;;;;;;;;;;17.10;89.90;;;;;;5094234;28;19926;-70
2023/04/10 08:43:42;;;;;;;;;;;17.10;90.30;;;;;;5093879;28;19908;-67
2023/04/10 08:46:09;;;;;;;;;;;17.00;90.40;;;;;;5096003;28;19908;-61
2023/04/10 08:48:42;;;;;;;;;;;16.90;90.60;;;;;;5095499;28;19961;-64
2023/04/10 08:51:13;;;;;;;;;;;16.80;90.90;;;;;;5096967;28;19918;-64
2023/04/10 08:53:40;;;;;;;;;;;16.80;91.20;;;;;;5095216;28;19931;-60
2023/04/10 08:56:07;;;;;;;;;;;16.70;91.70;;;;;;5100540;28;20671;-61
2023/04/10 08:58:34;;;;;;;;;;;16.70;92.00;;;;;;5098487;28;20348;-60
2023/04/10 09:01:01;;;;;;;;;;;16.60;92.00;;;;;;5098482;28;20090;-64
2023/04/10 09:03:28;;;;;;;;;;;16.50;92.30;;;;;;5098346;28;20372;-63
2023/04/10 09:05:54;;;;;;;;;;;16.40;92.50;;;;;;5099566;28;20265;-65
2023/04/10 09:08:21;;;;;;;;;;;16.30;92.90;;;;;;5100146;28;19907;-63
2023/04/10 09:10:48;;;;;;;;;;;16.30;93.30;;;;;;5099036;28;20532;-67
2023/04/10 09:13:14;;;;;;;;;;;16.20;93.60;;;;;;5101114;28;20037;-70
2023/04/10 09:15:59;;;;;;;;;;;16.10;94.00;;;;;;5098861;28;20030;-67
2023/04/10 09:18:46;;;;;;;;;;;16.10;94.00;;;;;;5099425;28;20325;-62
2023/04/10 09:21:14;;;;;;;;;;;16.00;94.30;;;;;;5099069;28;19912;-66
2023/04/10 09:23:43;;;;;;;;;;;16.00;94.70;;;;;;5098991;28;20317;-61
2023/04/10 09:26:29;;;;;;;;;;;16.00;95.20;;;;;;5100250;28;19957;-69
2023/04/10 09:28:56;;;;;;;;;;;15.90;95.30;;;;;;5099342;28;19919;-62
2023/04/10 09:31:29;;;;;;;;;;;15.90;95.80;;;;;;5100253;28;20410;-67
2023/04/10 09:34:11;;;;;;;;;;;15.80;95.90;;;;;;5100567;28;19939;-64
2023/04/10 09:36:39;;;;;;;;;;;15.80;95.70;;;;;;5098568;28;19916;-67
2023/04/10 09:39:07;;;;;;;;;;;15.80;95.40;;;;;;5099330;28;20517;-64
2023/04/10 09:41:34;;;;;;;;;;;15.70;95.10;;;;;;5097874;28;19955;-61
2023/04/10 09:44:08;;;;;;;;;;;15.70;93.60;;;;;;5099285;28;20261;-69
2023/04/10 09:46:35;;;;;;;;;;;15.70;94.00;;;;;;5097990;28;19918;-61
2023/04/10 09:49:04;;;;;;;;;;;15.80;93.60;;;;;;5099435;28;19998;-65
2023/04/10 09:51:31;;;;;;;;;;;15.80;93.50;;;;;;5099605;28;19908;-61
2023/04/10 09:53:58;;;;;;;;;;;15.80;91.50;;;;;;5099254;28;19919;-62
2023/04/10 09:56:27;;;;;;;;;;;15.80;90.30;;;;;;5098980;28;19916;-60
2023/04/10 09:58:56;;;;;;;;;;;15.90;88.60;;;;;;5097946;28;20105;-62
2023/04/10 10:01:24;;;;;;;;;;;16.00;87.10;;;;;;5098497;28;20191;-66
2023/04/10 10:03:52;;;;;;;;;;;16.10;84.40;;;;;;5097273;28;20263;-61
2023/04/10 10:06:20;;;;;;;;;;;16.00;83.90;;;;;;5098704;28;20351;-59
2023/04/10 10:08:47;;;;;;;;;;;16.10;83.20;;;;;;5098232;28;20312;-61
2023/04/10 10:11:17;;;;;;;;;;;16.20;81.90;;;;;;5099484;28;19908;-69
2023/04/10 10:13:47;;;;;;;;;;;16.20;81.30;;;;;;5097463;28;20532;-68
2023/04/10 10:16:14;;;;;;;;;;;16.20;80.90;;;;;;5099234;28;19916;-70
2023/04/10 10:18:44;;;;;;;;;;;16.20;80.40;;;;;;5096713;28;20556;-68
2023/04/10 10:21:12;;;;;;;;;;;16.20;80.20;;;;;;5098608;28;19995;-70
2023/04/10 10:23:43;;;;;;;;;;;16.20;79.50;;;;;;5097725;28;19916;-61
2023/04/10 10:26:10;;;;;;;;;;;16.20;79.50;;;;;;5098877;28;19908;-67
2023/04/10 10:28:38;;;;;;;;;;;16.20;79.90;;;;;;5098119;28;19915;-62
2023/04/10 10:31:05;;;;;;;;;;;16.10;79.50;;;;;;5099145;28;20367;-63
2023/04/10 10:33:32;;;;;;;;;;;16.20;81.00;;;;;;5098338;28;20365;-61
2023/04/10 10:36:03;;;;;;;;;;;16.20;79.80;;;;;;5096946;28;20083;-60
2023/04/10 10:38:30;;;;;;;;;;;16.10;80.20;;;;;;5097812;28;20318;-63
2023/04/10 10:41:00;;;;;;;;;;;16.10;79.80;;;;;;5096929;28;19916;-61
2023/04/10 10:43:35;;;;;;;;;;;16.00;79.60;;;;;;5098288;28;19907;-63
2023/04/10 10:46:28;;;;;;;;;;;16.10;79.70;;;;;;5097258;28;20083;-69
2023/04/10 10:48:55;;;;;;;;;;;16.10;80.40;;;;;;5097512;28;20336;-66
2023/04/10 10:51:22;;;;;;;;;;;16.10;79.70;;;;;;5098412;28;19963;-64
2023/04/10 10:53:49;;;;;;;;;;;16.10;80.00;;;;;;5096875;28;20162;-68
2023/04/10 10:56:18;;;;;;;;;;;16.10;79.90;;;;;;5098143;28;19923;-60
2023/04/10 10:58:49;;;;;;;;;;;16.00;80.00;;;;;;5096354;28;19915;-61
2023/04/10 11:01:16;;;;;;;;;;;16.00;80.90;;;;;;5097867;28;19947;-60
2023/04/10 11:03:45;;;;;;;;;;;16.00;80.30;;;;;;5097174;28;19918;-62
2023/04/10 11:06:15;;;;;;;;;;;16.00;80.90;;;;;;5099014;28;20315;-61
2023/04/10 11:08:46;;;;;;;;;;;16.00;81.10;;;;;;5098587;28;20601;-62
2023/04/10 11:11:17;;;;;;;;;;;15.90;81.10;;;;;;5099723;28;19912;-64
2023/04/10 11:13:52;;;;;;;;;;;15.90;81.00;;;;;;5098965;28;20279;-62
2023/04/10 11:16:20;;;;;;;;;;;15.90;81.30;;;;;;5096590;28;19922;-61
2023/04/10 11:18:46;;;;;;;;;;;15.80;81.40;;;;;;5096395;28;20191;-64
2023/04/10 11:21:13;;;;;;;;;;;15.80;81.50;;;;;;5098119;28;19991;-65
2023/04/10 11:23:52;;;;;;;;;;;15.80;82.10;;;;;;5097451;28;19927;-63
2023/04/10 11:29:10;;;;;;;;;;;15.80;81.50;;;;;;5096458;28;19912;-61
2023/04/10 11:31:36;;;;;;;;;;;15.70;81.90;;;;;;5096629;28;20171;-69
2023/04/10 11:34:04;;;;;;;;;;;15.70;83.10;;;;;;5096716;28;19908;-63
2023/04/10 11:36:32;;;;;;;;;;;15.70;82.20;;;;;;5097413;28;19923;-62
2023/04/10 11:39:07;;;;;;;;;;;15.70;81.90;;;;;;5096309;28;19912;-72
2023/04/10 11:41:35;;;;;;;;;;;15.70;82.40;;;;;;5096687;28;19923;-69
2023/04/10 11:44:06;;;;;;;;;;;15.70;81.80;;;;;;5078304;28;20372;-71
2023/04/10 11:46:36;;;;;;;;;;;15.70;82.20;;;;;;5097826;28;19930;-71
2023/04/10 11:49:03;;;;;;;;;;;15.80;83.20;;;;;;5077906;28;19957;-62
2023/04/10 11:51:31;;;;;;;;;;;15.80;82.20;;;;;;5097716;28;19915;-72
2023/04/10 11:54:07;;;;;;;;;;;15.80;81.90;;;;;;5077336;28;19992;-71
2023/04/10 11:56:35;;;;;;;;;;;15.80;82.20;;;;;;5097292;28;20403;-72
2023/04/10 11:59:06;;;;;;;;;;;15.90;81.90;;;;;;5096246;28;19919;-71
2023/04/10 12:01:33;;;;;;;;;;;15.90;82.50;;;;;;5097541;28;19911;-70
2023/04/10 12:04:00;;;;;;;;;;;15.80;82.90;;;;;;5077333;28;20196;-72
2023/04/10 12:06:27;;;;;;;;;;;15.90;82.80;;;;;;5097137;28;20421;-65
2023/04/10 12:08:54;;;;;;;;;;;15.90;81.90;;;;;;5078155;28;20000;-71
2023/04/10 12:11:22;;;;;;;;;;;15.90;82.10;;;;;;5097552;28;19908;-70
2023/04/10 12:13:51;;;;;;;;;;;15.90;82.70;;;;;;5096867;28;19908;-70
2023/04/10 12:16:24;;;;;;;;;;;15.80;83.00;;;;;;5098457;28;20006;-63
2023/04/10 12:18:51;;;;;;;;;;;15.90;82.70;;;;;;5096604;28;19915;-65
2023/04/10 12:21:17;;;;;;;;;;;15.80;82.20;;;;;;5096711;28;20037;-68
2023/04/10 12:23:44;;;;;;;;;;;15.80;82.30;;;;;;5096141;28;19908;-71
2023/04/10 12:26:15;;;;;;;;;;;15.80;82.10;;;;;;5096559;28;19912;-62
2023/04/10 12:28:51;;;;;;;;;;;15.80;82.40;;;;;;5100636;28;19912;-63
2023/04/10 12:31:17;;;;;;;;;;;15.90;83.00;;;;;;5100296;28;19947;-69
2023/04/10 12:33:47;;;;;;;;;;;15.90;82.60;;;;;;5100469;28;19908;-68
2023/04/10 12:36:20;;;;;;;;;;;15.80;82.60;;;;;;5099715;28;20067;-64
2023/04/10 12:38:47;;;;;;;;;;;15.80;82.80;;;;;;5099692;28;19908;-69
2023/04/10 12:41:20;;;;;;;;;;;15.80;83.00;;;;;;5100055;28;19926;-62
2023/04/10 12:43:46;;;;;;;;;;;15.80;83.00;;;;;;5099977;28;20089;-61
2023/04/10 12:46:22;;;;;;;;;;;15.70;83.30;;;;;;5099938;28;19966;-65
2023/04/10 12:48:49;;;;;;;;;;;15.70;83.80;;;;;;5099365;28;20194;-59
2023/04/10 12:51:16;;;;;;;;;;;15.60;83.90;;;;;;5099761;28;20086;-59
2023/04/10 12:53:43;;;;;;;;;;;15.60;84.90;;;;;;5100530;28;19913;-64
2023/04/10 12:56:11;;;;;;;;;;;15.50;84.30;;;;;;5099169;28;20380;-59
2023/04/10 12:58:37;;;;;;;;;;;15.50;84.20;;;;;;5100313;28;19939;-69
2023/04/10 13:01:05;;;;;;;;;;;15.50;84.20;;;;;;5098811;28;19991;-61
2023/04/10 13:03:35;;;;;;;;;;;15.40;84.70;;;;;;5101318;28;19980;-63
2023/04/10 13:06:02;;;;;;;;;;;15.40;84.80;;;;;;5100218;28;19908;-67
2023/04/10 13:08:31;;;;;;;;;;;15.40;84.90;;;;;;5100152;28;19912;-61
2023/04/10 13:11:02;;;;;;;;;;;15.30;84.50;;;;;;5100151;28;19959;-69
2023/04/10 13:13:30;;;;;;;;;;;15.20;84.70;;;;;;5100709;28;20006;-70
2023/04/10 13:15:56;;;;;;;;;;;15.20;85.40;;;;;;5099081;28;19911;-67
2023/04/10 13:18:23;;;;;;;;;;;15.20;85.30;;;;;;5099095;28;20033;-65
2023/04/10 13:20:50;;;;;;;;;;;15.20;85.90;;;;;;5099794;28;19915;-62
2023/04/10 13:23:16;;;;;;;;;;;15.10;85.70;;;;;;5099213;28;20378;-64
2023/04/10 13:25:43;;;;;;;;;;;15.10;87.30;;;;;;5100145;28;19945;-65
2023/04/10 13:28:14;;;;;;;;;;;15.00;86.40;;;;;;5098818;28;19930;-69
2023/04/10 13:30:41;;;;;;;;;;;15.00;86.00;;;;;;5099860;28;19912;-69
2023/04/10 13:33:08;;;;;;;;;;;14.90;86.50;;;;;;5098470;28;20069;-62
2023/04/10 13:35:35;;;;;;;;;;;14.90;86.70;;;;;;5100341;28;19916;-64
2023/04/10 13:38:02;;;;;;;;;;;14.80;86.80;;;;;;5098962;28;19908;-70
2023/04/10 13:40:28;;;;;;;;;;;14.80;87.90;;;;;;5098201;28;19916;-71
2023/04/10 13:42:55;;;;;;;;;;;14.80;87.40;;;;;;5099048;28;19908;-70
2023/04/10 13:45:22;;;;;;;;;;;14.70;88.70;;;;;;5098674;28;19908;-62
2023/04/10 13:47:48;;;;;;;;;;;14.70;88.30;;;;;;5099660;28;20353;-64
2023/04/10 13:50:15;;;;;;;;;;;14.60;87.80;;;;;;5097630;28;19908;-61
2023/04/10 13:52:41;;;;;;;;;;;14.60;88.40;;;;;;5099632;28;19927;-69
2023/04/10 13:55:08;;;;;;;;;;;14.60;88.00;;;;;;5099420;28;20348;-61
2023/04/10 13:57:35;;;;;;;;;;;14.50;88.10;;;;;;5099738;28;20280;-70
2023/04/10 14:00:03;;;;;;;;;;;14.50;88.90;;;;;;5098611;28;20387;-70
2023/04/10 14:02:30;;;;;;;;;;;14.50;89.00;;;;;;5099217;28;19907;-67
2023/04/10 14:04:57;;;;;;;;;;;14.50;88.90;;;;;;5098483;28;19939;-63
2023/04/10 14:07:23;;;;;;;;;;;14.50;89.00;;;;;;5100751;28;20241;-63
2023/04/10 14:09:50;;;;;;;;;;;14.40;89.70;;;;;;5097663;28;19908;-70
2023/04/10 14:12:18;;;;;;;;;;;14.30;90.10;;;;;;5099064;28;19908;-63
2023/04/10 14:14:45;;;;;;;;;;;14.30;90.20;;;;;;5097430;28;20190;-70
2023/04/10 14:17:11;;;;;;;;;;;14.30;90.10;;;;;;5099071;28;19916;-70
2023/04/10 14:19:38;;;;;;;;;;;14.30;90.10;;;;;;5098398;28;20399;-70
2023/04/10 14:22:05;;;;;;;;;;;14.20;90.50;;;;;;5097748;28;19943;-70
2023/04/10 14:24:31;;;;;;;;;;;14.10;90.40;;;;;;5099000;28;19961;-69